Time;durP1;ratioP1;P1;durP2;ratioP2;P2;SDS_P1;SDS_P2;PMS_P1;PMS_P2;Temp;Humidity;BMP_temperature;BMP_pressure;BME280_temperature;BME280_humidity;BME280_pressure;Samples;Min_cycle;Max_cycle;Signal;HPM_P1;HPM_P2
2022/11/17 00:00:43;;;;;;;705.10;50.58;;;;;;;-146.73;100.00;56421.06;6066958;23;20022;-96
2022/11/17 00:03:17;;;;;;;656.40;48.85;;;;;;;-146.73;100.00;56421.06;6067436;23;20078;-96
2022/11/17 00:05:43;;;;;;;697.22;52.15;;;;;;;-146.73;100.00;56421.06;6066501;23;20035;-96
2022/11/17 00:08:12;;;;;;;714.92;51.72;;;;;;;-146.73;100.00;56421.06;6067547;23;20033;-96
2022/11/17 00:10:39;;;;;;;627.53;41.72;;;;;;;-146.73;100.00;56421.06;6090339;23;20079;-96
2022/11/17 00:15:49;;;;;;;593.90;42.22;;;;;;;-146.73;100.00;56421.06;6068475;23;20098;-96
2022/11/17 00:21:17;;;;;;;450.40;31.13;;;;;;;-146.73;100.00;56421.06;6068295;23;20030;-94
2022/11/17 00:23:46;;;;;;;490.73;39.65;;;;;;;-146.73;100.00;56421.06;6067121;23;20010;-96
2022/11/17 00:26:15;;;;;;;596.95;39.40;;;;;;;-146.73;100.00;56421.06;6090140;23;19999;-96
2022/11/17 00:28:41;;;;;;;701.50;48.92;;;;;;;-146.73;100.00;56421.06;6090759;23;20338;-96
2022/11/17 00:34:06;;;;;;;693.90;50.30;;;;;;;-146.73;100.00;56421.06;6067891;23;20029;-96
2022/11/17 00:36:40;;;;;;;617.53;45.40;;;;;;;-146.73;100.00;56421.06;6090628;23;20023;-96
2022/11/17 00:39:07;;;;;;;669.30;45.53;;;;;;;-146.73;100.00;56421.06;6090181;23;20429;-96
2022/11/17 00:41:33;;;;;;;668.42;48.45;;;;;;;-146.73;100.00;56421.06;6090019;23;20062;-95
2022/11/17 00:43:58;;;;;;;677.92;48.65;;;;;;;-146.73;100.00;56421.06;6066259;23;20010;-96
2022/11/17 00:46:24;;;;;;;635.92;45.58;;;;;;;-146.73;100.00;56421.06;6088641;23;20036;-96
2022/11/17 00:48:49;;;;;;;719.55;50.75;;;;;;;-146.73;100.00;56421.06;6066726;23;20172;-96
2022/11/17 00:51:15;;;;;;;936.90;65.28;;;;;;;-146.73;100.00;56421.06;6090074;23;20019;-96
2022/11/17 00:53:40;;;;;;;640.20;46.55;;;;;;;-146.73;100.00;56421.06;6066344;23;20013;-96
2022/11/17 00:56:06;;;;;;;597.75;43.92;;;;;;;-146.73;100.00;56421.06;6090626;23;20007;-95
2022/11/17 00:58:33;;;;;;;584.47;40.53;;;;;;;-146.73;100.00;56421.06;6066242;23;20077;-95
2022/11/17 01:00:59;;;;;;;426.80;28.75;;;;;;;-146.73;100.00;56421.06;6089922;23;20440;-96
2022/11/17 01:03:30;;;;;;;224.90;18.50;;;;;;;-146.73;100.00;56421.06;6090474;23;20010;-96
2022/11/17 01:06:02;;;;;;;306.52;22.88;;;;;;;-146.73;100.00;56421.06;6065294;23;20050;-96
2022/11/17 01:08:31;;;;;;;66.47;10.25;;;;;;;-146.73;100.00;56421.06;6090489;23;20006;-96
2022/11/17 01:11:07;;;;;;;21.00;7.05;;;;;;;-146.73;100.00;56421.06;6066428;23;20063;-95
2022/11/17 01:13:33;;;;;;;16.90;6.13;;;;;;;-146.73;100.00;56421.06;6066028;23;20014;-96
2022/11/17 01:16:06;;;;;;;25.45;6.15;;;;;;;-146.73;100.00;56421.06;6067662;23;20009;-96
2022/11/17 01:18:33;;;;;;;21.20;5.80;;;;;;;-146.73;100.00;56421.06;6065249;23;20006;-96
2022/11/17 01:21:06;;;;;;;20.02;6.07;;;;;;;-146.73;100.00;56421.06;6065849;23;20018;-96
2022/11/17 01:23:32;;;;;;;;;;;;;;;-146.73;100.00;56421.06;6090705;23;20027;-96
2022/11/17 01:26:02;;;;;;;12.90;4.35;;;;;;;-146.73;100.00;56421.06;6065682;23;19906;-95
2022/11/17 01:28:28;;;;;;;13.93;3.70;;;;;;;-146.73;100.00;56421.06;6065193;23;20014;-95
2022/11/17 01:31:07;;;;;;;16.20;5.20;;;;;;;-146.73;100.00;56421.06;6064850;23;20017;-96
2022/11/17 01:33:33;;;;;;;17.52;5.15;;;;;;;-146.73;100.00;56421.06;6065696;23;20007;-95
2022/11/17 01:36:01;;;;;;;21.50;4.75;;;;;;;-146.73;100.00;56421.06;6065764;23;20019;-95
2022/11/17 01:38:26;;;;;;;18.75;5.57;;;;;;;-146.73;100.00;56421.06;6065652;23;20516;-95
2022/11/17 01:40:52;;;;;;;17.85;5.70;;;;;;;-146.73;100.00;56421.06;6087639;23;20050;-94
2022/11/17 01:43:38;;;;;;;22.77;6.10;;;;;;;-146.73;100.00;56421.06;6065389;23;20014;-96
2022/11/17 01:46:06;;;;;;;27.88;7.22;;;;;;;-146.73;100.00;56421.06;6066682;23;20333;-96
2022/11/17 01:48:32;;;;;;;25.88;7.28;;;;;;;-146.73;100.00;56421.06;6064307;23;20014;-96
2022/11/17 01:50:58;;;;;;;25.00;8.02;;;;;;;-146.73;100.00;56421.06;6089057;23;20085;-95
2022/11/17 01:53:27;;;;;;;20.42;6.30;;;;;;;-146.73;100.00;56421.06;6064567;23;20449;-95
2022/11/17 01:56:01;;;;;;;17.50;5.60;;;;;;;-146.73;100.00;56421.06;6065897;23;20019;-96
2022/11/17 01:58:35;;;;;;;19.52;5.20;;;;;;;-146.73;100.00;56421.06;6089196;23;20026;-96
2022/11/17 02:01:02;;;;;;;16.65;5.15;;;;;;;-146.73;100.00;56421.06;6089320;23;20003;-96
2022/11/17 02:03:34;;;;;;;16.63;5.07;;;;;;;-146.73;100.00;56421.06;6088283;23;20003;-96
2022/11/17 02:06:05;;;;;;;16.55;5.75;;;;;;;-146.73;100.00;56421.06;6089610;23;20035;-96
2022/11/17 02:08:35;;;;;;;13.05;4.32;;;;;;;-146.73;100.00;56421.06;6089840;23;20471;-95
2022/11/17 02:11:07;;;;;;;14.35;4.55;;;;;;;-146.73;100.00;56421.06;6090425;23;20010;-96
2022/11/17 02:13:34;;;;;;;18.13;5.32;;;;;;;-146.73;100.00;56421.06;6089342;23;20010;-96
2022/11/17 02:16:00;;;;;;;19.52;5.18;;;;;;;-146.73;100.00;56421.06;6089904;23;20006;-95
2022/11/17 02:18:25;;;;;;;16.40;4.75;;;;;;;-146.73;100.00;56421.06;6065319;23;20006;-96
2022/11/17 02:21:27;;;;;;;12.98;4.60;;;;;;;-146.73;100.00;56421.06;6066516;23;20013;-95
2022/11/17 02:24:11;;;;;;;15.43;3.40;;;;;;;-146.73;100.00;56421.06;6066058;23;20557;-95
2022/11/17 02:27:02;;;;;;;14.15;3.03;;;;;;;-146.73;100.00;56421.06;6067258;23;20010;-95
2022/11/17 02:29:40;;;;;;;12.23;3.28;;;;;;;-146.73;100.00;56421.06;6092159;23;20007;-95
2022/11/17 02:32:12;;;;;;;13.18;2.92;;;;;;;-146.73;100.00;56421.06;6067814;23;20003;-96
2022/11/17 02:35:10;;;;;;;13.05;3.28;;;;;;;-146.73;100.00;56421.06;6091571;23;20011;-95
2022/11/17 02:37:54;;;;;;;16.45;3.22;;;;;;;-146.73;100.00;56421.06;6064210;23;20015;-95
2022/11/17 02:40:30;;;;;;;11.15;3.33;;;;;;;-146.73;100.00;56421.06;6066961;23;20011;-96
2022/11/17 02:46:04;;;;;;;16.48;3.40;;;;;;;-146.73;100.00;56421.06;6068852;23;20029;-96
2022/11/17 02:48:37;;;;;;;12.35;3.10;;;;;;;-146.73;100.00;56421.06;6066448;23;20010;-96
2022/11/17 02:51:05;;;;;;;13.10;3.15;;;;;;;-146.73;100.00;56421.06;6090650;23;20055;-94
2022/11/17 02:53:32;;;;;;;10.32;3.17;;;;;;;-146.73;100.00;56421.06;6066554;23;20428;-94
2022/11/17 02:56:00;;;;;;;12.98;3.55;;;;;;;-146.73;100.00;56421.06;6089644;23;20007;-95
2022/11/17 02:58:26;;;;;;;12.10;2.63;;;;;;;-146.73;100.00;56421.06;6061484;23;20026;-95
2022/11/17 03:04:04;;;;;;;9.68;2.47;;;;;;;-146.73;100.00;56421.06;6037332;23;20050;-92
2022/11/17 03:07:00;;;;;;;14.23;2.90;;;;;;;-146.73;100.00;56421.06;6008281;23;20027;-91
2022/11/17 03:09:47;;;;;;;15.32;3.20;;;;;;;-146.73;100.00;56421.06;6009676;23;20067;-92
2022/11/17 03:12:31;;;;;;;16.63;2.95;;;;;;;-146.73;100.00;56421.06;6010276;23;20090;-92
2022/11/17 03:15:12;;;;;;;13.02;3.03;;;;;;;-146.73;100.00;56421.06;6009890;23;20054;-91
2022/11/17 03:17:47;;;;;;;12.77;2.78;;;;;;;-146.73;100.00;56421.06;6009046;23;20433;-92
2022/11/17 03:20:20;;;;;;;11.35;2.80;;;;;;;-146.73;100.00;56421.06;6034919;23;20169;-91
2022/11/17 03:23:03;;;;;;;11.25;2.80;;;;;;;-146.73;100.00;56421.06;6033880;23;20011;-92
2022/11/17 03:25:32;;;;;;;16.50;3.85;;;;;;;-146.73;100.00;56421.06;6009815;23;20011;-92
2022/11/17 03:28:06;;;;;;;13.77;2.90;;;;;;;-146.73;100.00;56421.06;6008977;23;20513;-95
2022/11/17 03:30:42;;;;;;;14.73;3.00;;;;;;;-146.73;100.00;56421.06;6010512;23;20448;-91
2022/11/17 03:33:16;;;;;;;13.43;2.85;;;;;;;-146.73;100.00;56421.06;6010249;23;20106;-91
2022/11/17 03:35:54;;;;;;;17.08;2.65;;;;;;;-146.73;100.00;56421.06;6035358;23;20313;-92
2022/11/17 03:38:27;;;;;;;14.02;3.10;;;;;;;-146.73;100.00;56421.06;6010224;23;20330;-92
2022/11/17 03:41:02;;;;;;;11.52;2.65;;;;;;;-146.73;100.00;56421.06;6010860;23;20011;-91
2022/11/17 03:43:42;;;;;;;18.25;3.72;;;;;;;-146.73;100.00;56421.06;6011210;23;20381;-91
2022/11/17 03:46:29;;;;;;;11.98;2.70;;;;;;;-146.73;100.00;56421.06;6010923;23;20030;-92
2022/11/17 03:49:15;;;;;;;11.68;3.85;;;;;;;-146.73;100.00;56421.06;6008609;23;20484;-94
2022/11/17 03:51:44;;;;;;;10.38;2.53;;;;;;;-146.73;100.00;56421.06;6034706;23;20393;-92
2022/11/17 03:54:10;;;;;;;10.02;2.42;;;;;;;-146.73;100.00;56421.06;6009753;23;20018;-92
2022/11/17 03:56:48;;;;;;;15.30;3.03;;;;;;;-146.73;100.00;56421.06;6010000;23;20015;-93
2022/11/17 03:59:46;;;;;;;10.13;3.00;;;;;;;-146.73;100.00;56421.06;6035374;23;20003;-93
2022/11/17 04:02:26;;;;;;;13.60;3.10;;;;;;;-146.73;100.00;56421.06;6011423;23;20042;-93
2022/11/17 04:05:06;;;;;;;9.80;2.85;;;;;;;-146.73;100.00;56421.06;6038394;23;20055;-93
2022/11/17 04:07:39;;;;;;;13.45;3.20;;;;;;;-146.73;100.00;56421.06;6013508;23;20019;-93
2022/11/17 04:10:21;;;;;;;14.98;2.85;;;;;;;-146.73;100.00;56421.06;6015670;23;20003;-94
2022/11/17 04:15:57;;;;;;;9.88;2.13;;;;;;;-146.73;100.00;56421.06;6037921;23;20422;-94
2022/11/17 04:18:27;;;;;;;13.80;2.55;;;;;;;-146.73;100.00;56421.06;6013055;23;20038;-93
2022/11/17 04:20:59;;;;;;;9.38;2.40;;;;;;;-146.73;100.00;56421.06;6014303;23;20618;-95
2022/11/17 04:23:41;;;;;;;9.05;2.42;;;;;;;-146.73;100.00;56421.06;6013817;23;20023;-94
2022/11/17 04:29:13;;;;;;;10.82;2.22;;;;;;;-146.73;100.00;56421.06;6039803;23;20114;-94
2022/11/17 04:31:57;;;;;;;9.75;2.15;;;;;;;-146.73;100.00;56421.06;6013563;23;20465;-95
2022/11/17 04:34:30;;;;;;;11.35;2.10;;;;;;;-146.73;100.00;56421.06;6011982;23;20011;-93
2022/11/17 04:37:15;;;;;;;12.15;2.17;;;;;;;-146.73;100.00;56421.06;6013005;23;20792;-94
2022/11/17 04:39:42;;;;;;;10.20;2.20;;;;;;;-146.73;100.00;56421.06;6012697;23;20027;-94
2022/11/17 04:42:08;;;;;;;7.93;2.10;;;;;;;-146.73;100.00;56421.06;6013354;23;20014;-94
2022/11/17 04:44:35;;;;;;;10.90;2.00;;;;;;;-146.73;100.00;56421.06;6011767;23;20010;-94
2022/11/17 04:47:07;;;;;;;6.22;1.58;;;;;;;-146.73;100.00;56421.06;6013402;23;20011;-94
2022/11/17 04:49:38;;;;;;;13.23;2.38;;;;;;;-146.73;100.00;56421.06;6038013;23;20006;-94
2022/11/17 04:52:04;;;;;;;10.98;1.77;;;;;;;-146.73;100.00;56421.06;6038163;23;20023;-94
2022/11/17 04:54:39;;;;;;;10.25;2.10;;;;;;;-146.73;100.00;56421.06;6015424;23;20012;-95
2022/11/17 04:57:14;;;;;;;9.93;1.90;;;;;;;-146.73;100.00;56421.06;6030971;23;20069;-95
2022/11/17 04:59:44;;;;;;;6.35;1.85;;;;;;;-146.73;100.00;56421.06;6031932;23;20003;-95
2022/11/17 05:02:10;;;;;;;9.60;2.00;;;;;;;-146.73;100.00;56421.06;6031110;23;19999;-95
2022/11/17 05:07:26;;;;;;;9.13;2.13;;;;;;;-146.73;100.00;56421.06;6054171;23;20013;-95
2022/11/17 05:09:53;;;;;;;7.50;1.60;;;;;;;-146.73;100.00;56421.06;6034747;23;20595;-94
2022/11/17 05:15:03;;;;;;;9.00;2.08;;;;;;;-146.73;100.00;56421.06;6045048;23;20509;-96
2022/11/17 05:17:34;;;;;;;12.93;2.13;;;;;;;-146.73;100.00;56421.06;6017340;23;20012;-95
2022/11/17 05:20:02;;;;;;;10.70;2.42;;;;;;;-146.73;100.00;56421.06;6015439;23;20003;-94
2022/11/17 05:25:12;;;;;;;7.75;1.92;;;;;;;-146.73;100.00;56421.06;6056918;23;20038;-95
2022/11/17 05:27:38;;;;;;;8.15;1.88;;;;;;;-146.73;100.00;56421.06;6032200;23;20429;-94
2022/11/17 05:30:06;;;;;;;8.05;2.20;;;;;;;-146.73;100.00;56421.06;6017507;23;20010;-95
2022/11/17 05:32:31;;;;;;;8.80;1.75;;;;;;;-146.73;100.00;56421.06;6014770;23;20011;-95
2022/11/17 05:34:57;;;;;;;9.20;1.90;;;;;;;-146.73;100.00;56421.06;6015004;23;20023;-96
2022/11/17 05:37:25;;;;;;;8.38;2.05;;;;;;;-146.73;100.00;56421.06;6014604;23;20034;-94
2022/11/17 05:39:56;;;;;;;6.55;1.70;;;;;;;-146.73;100.00;56421.06;6013728;23;20039;-94
2022/11/17 05:42:27;;;;;;;10.10;1.70;;;;;;;-146.73;100.00;56421.06;6012319;23;20023;-94
2022/11/17 05:44:55;;;;;;;10.63;1.92;;;;;;;-146.73;100.00;56421.06;6012617;23;20022;-94
2022/11/17 05:47:24;;;;;;;10.50;1.80;;;;;;;-146.73;100.00;56421.06;6012328;23;20073;-94
2022/11/17 05:49:52;;;;;;;12.20;2.08;;;;;;;-146.73;100.00;56421.06;6012502;23;20014;-94
2022/11/17 05:52:21;;;;;;;8.98;2.00;;;;;;;-146.73;100.00;56421.06;6013202;23;20425;-95
2022/11/17 05:54:51;;;;;;;6.88;1.75;;;;;;;-146.73;100.00;56421.06;6013659;23;20043;-95
2022/11/17 05:57:24;;;;;;;7.50;2.10;;;;;;;-146.73;100.00;56421.06;6013828;23;20038;-95
2022/11/17 05:59:54;;;;;;;6.53;1.80;;;;;;;-146.73;100.00;56421.06;6041502;23;20019;-95
2022/11/17 06:02:26;;;;;;;7.20;1.73;;;;;;;-146.73;100.00;56421.06;6015740;23;20011;-95
2022/11/17 06:04:55;;;;;;;8.25;1.70;;;;;;;-146.73;100.00;56421.06;6048459;23;20030;-95
2022/11/17 06:07:20;;;;;;;9.20;1.85;;;;;;;-146.73;100.00;56421.06;6069596;23;20046;-95
2022/11/17 06:09:49;;;;;;;10.25;2.20;;;;;;;-146.73;100.00;56421.06;6067942;23;20480;-95
2022/11/17 06:12:14;;;;;;;9.07;1.65;;;;;;;-146.73;100.00;56421.06;6069131;23;20010;-94
2022/11/17 06:14:40;;;;;;;32.10;3.97;;;;;;;-146.73;100.00;56421.06;6068313;23;20022;-95
2022/11/17 06:17:17;;;;;;;10.90;2.00;;;;;;;-146.73;100.00;56421.06;6067583;23;20093;-95
2022/11/17 06:19:48;;;;;;;14.68;2.28;;;;;;;-146.73;100.00;56421.06;6067140;23;20027;-95
2022/11/17 06:22:14;;;;;;;12.27;2.28;;;;;;;-146.73;100.00;56421.06;6068702;23;20011;-96
2022/11/17 06:24:43;;;;;;;14.98;2.50;;;;;;;-146.73;100.00;56421.06;6068102;23;20015;-96
2022/11/17 06:27:14;;;;;;;14.85;2.92;;;;;;;-146.73;100.00;56421.06;6069104;23;20015;-96
2022/11/17 06:29:53;;;;;;;55.55;4.65;;;;;;;-146.73;100.00;56421.06;6069340;23;20018;-96
2022/11/17 06:32:19;;;;;;;13.93;2.55;;;;;;;-146.73;100.00;56421.06;6067770;23;20023;-95
2022/11/17 06:34:47;;;;;;;35.35;4.75;;;;;;;-146.73;100.00;56421.06;6067886;23;20013;-95
2022/11/17 06:37:13;;;;;;;19.30;2.53;;;;;;;-146.73;100.00;56421.06;6070698;23;20035;-96
2022/11/17 06:39:42;;;;;;;11.57;1.85;;;;;;;-146.73;100.00;56421.06;6067634;23;20086;-95
2022/11/17 06:42:08;;;;;;;10.20;1.73;;;;;;;-146.73;100.00;56421.06;6068813;23;20361;-95
2022/11/17 06:44:33;;;;;;;9.18;2.00;;;;;;;-146.73;100.00;56421.06;6069053;23;20023;-95
2022/11/17 06:47:05;;;;;;;53.38;4.63;;;;;;;-146.73;100.00;56421.06;6067423;23;20018;-96
2022/11/17 06:49:30;;;;;;;6.50;1.50;;;;;;;-146.73;100.00;56421.06;6067804;23;19999;-95
2022/11/17 06:51:56;;;;;;;11.43;1.85;;;;;;;-146.73;100.00;56421.06;6070447;23;20093;-96
2022/11/17 06:54:21;;;;;;;15.05;2.22;;;;;;;-146.73;100.00;56421.06;6068838;23;20015;-96
2022/11/17 06:56:49;;;;;;;12.95;1.75;;;;;;;-146.73;100.00;56421.06;6069735;23;20049;-96
2022/11/17 06:59:16;;;;;;;7.93;1.83;;;;;;;-146.73;100.00;56421.06;6068928;23;20010;-95
2022/11/17 07:01:42;;;;;;;6.82;1.58;;;;;;;-146.73;100.00;56421.06;6068629;23;20014;-95
2022/11/17 07:04:10;;;;;;;17.80;2.20;;;;;;;-146.73;100.00;56421.06;6068194;23;20050;-95
2022/11/17 07:06:36;;;;;;;12.88;1.80;;;;;;;-146.73;100.00;56421.06;6067214;23;20014;-95
2022/11/17 07:09:05;;;;;;;14.07;1.92;;;;;;;-146.73;100.00;56421.06;6067532;23;20006;-95
2022/11/17 07:11:36;;;;;;;12.90;1.90;;;;;;;-146.73;100.00;56421.06;6067007;23;20034;-94
2022/11/17 07:14:03;;;;;;;13.93;1.70;;;;;;;-146.73;100.00;56421.06;6066869;23;20007;-94
2022/11/17 07:16:29;;;;;;;61.90;5.60;;;;;;;-146.73;100.00;56421.06;6067055;23;20397;-95
2022/11/17 07:18:57;;;;;;;6.57;1.52;;;;;;;-146.73;100.00;56421.06;6066754;23;20018;-94
2022/11/17 07:21:23;;;;;;;11.60;1.90;;;;;;;-146.73;100.00;56421.06;6065898;23;20011;-93
2022/11/17 07:23:48;;;;;;;5.70;1.38;;;;;;;-146.73;100.00;56421.06;6067370;23;20014;-95
2022/11/17 07:26:14;;;;;;;23.15;2.33;;;;;;;-146.73;100.00;56421.06;6066075;23;20022;-94
2022/11/17 07:28:40;;;;;;;23.27;2.63;;;;;;;-146.73;100.00;56421.06;6064606;23;20058;-93
2022/11/17 07:31:07;;;;;;;25.30;2.75;;;;;;;-146.73;100.00;56421.06;6065947;23;20082;-93
2022/11/17 07:33:33;;;;;;;13.80;1.50;;;;;;;-146.73;100.00;56421.06;6065880;23;20011;-94
2022/11/17 07:36:08;;;;;;;45.15;4.80;;;;;;;-146.73;100.00;56421.06;6065869;23;20046;-95
2022/11/17 07:38:34;;;;;;;7.68;1.13;;;;;;;-146.73;100.00;56421.06;6066292;23;20011;-94
2022/11/17 07:41:01;;;;;;;10.60;1.50;;;;;;;-146.73;100.00;56421.06;6064590;23;20037;-95
2022/11/17 07:43:27;;;;;;;13.88;1.75;;;;;;;-146.73;100.00;56421.06;6065665;23;20051;-94
2022/11/17 07:46:09;;;;;;;6.88;1.20;;;;;;;-146.73;100.00;56421.06;6063519;23;20416;-94
2022/11/17 07:48:35;;;;;;;8.88;1.48;;;;;;;-146.73;100.00;56421.06;6062037;23;20015;-94
2022/11/17 07:51:02;;;;;;;14.32;1.75;;;;;;;-146.73;100.00;56421.06;6065470;23;20255;-94
2022/11/17 07:53:37;;;;;;;16.83;3.42;;;;;;;-146.73;100.00;56421.06;6066363;23;20025;-94
2022/11/17 07:56:05;;;;;;;27.75;2.55;;;;;;;-146.73;100.00;56421.06;6062737;23;20022;-94
2022/11/17 07:58:31;;;;;;;6.38;1.27;;;;;;;-146.73;100.00;56421.06;6064422;23;20003;-94
2022/11/17 08:04:29;;;;;;;5.25;1.00;;;;;;;-146.73;100.00;56421.06;5978507;24;20034;-94
2022/11/17 08:07:00;;;;;;;6.18;1.25;;;;;;;-146.73;100.00;56421.06;5957465;24;20020;-96
2022/11/17 08:09:29;;;;;;;5.38;1.15;;;;;;;-146.73;100.00;56421.06;5982764;24;20044;-96
2022/11/17 08:11:56;;;;;;;3.72;0.85;;;;;;;-146.73;100.00;56421.06;5959923;24;20012;-96
2022/11/17 08:14:39;;;;;;;3.75;1.10;;;;;;;-146.73;100.00;56421.06;5997546;23;20012;-95
2022/11/17 08:20:31;;;;;;;4.20;1.13;;;;;;;-146.73;100.00;56421.06;5980634;24;20354;-93
2022/11/17 08:23:19;;;;;;;6.50;1.10;;;;;;;-146.73;100.00;56421.06;5985397;24;20450;-95
2022/11/17 08:25:47;;;;;;;5.63;1.20;;;;;;;-146.73;100.00;56421.06;5960758;24;20001;-95
2022/11/17 08:28:19;;;;;;;7.45;1.30;;;;;;;-146.73;100.00;56421.06;5987513;24;20464;-94
2022/11/17 08:30:46;;;;;;;5.32;1.27;;;;;;;-146.73;100.00;56421.06;5999026;24;19996;-94
2022/11/17 08:33:38;;;;;;;4.55;1.10;;;;;;;-146.73;100.00;56421.06;5998340;24;20071;-94
2022/11/17 08:36:06;;;;;;;5.50;1.10;;;;;;;-146.73;100.00;56421.06;5986741;24;20008;-95
2022/11/17 08:38:34;;;;;;;4.68;0.95;;;;;;;-146.73;100.00;56421.06;5960257;24;20026;-95
2022/11/17 08:41:15;;;;;;;11.57;3.03;;;;;;;-146.73;100.00;56421.06;6015487;23;20010;-95
2022/11/17 08:43:41;;;;;;;8.25;2.10;;;;;;;-146.73;100.00;56421.06;6060055;23;20017;-94
2022/11/17 08:49:24;;;;;;;4.95;0.90;;;;;;;-146.73;100.00;56421.06;6057306;23;20011;-94
2022/11/17 08:52:36;;;;;;;7.72;0.95;;;;;;;-146.73;100.00;56421.06;6064081;23;20033;-95
2022/11/17 08:55:04;;;;;;;4.60;0.98;;;;;;;-146.73;100.00;56421.06;5980398;23;20109;-92
2022/11/17 08:57:30;;;;;;;5.13;1.33;;;;;;;-146.73;100.00;56421.06;6059222;23;20006;-92
2022/11/17 08:59:56;;;;;;;4.82;1.13;;;;;;;-146.73;100.00;56421.06;6059919;23;20006;-92
2022/11/17 09:02:38;;;;;;;5.88;1.02;;;;;;;-146.73;100.00;56421.06;6058977;23;20026;-92
2022/11/17 09:05:06;;;;;;;5.25;1.33;;;;;;;-146.73;100.00;56421.06;6059590;23;20097;-94
2022/11/17 09:08:15;;;;;;;6.75;1.10;;;;;;;-146.73;100.00;56421.06;6063213;23;20082;-94
2022/11/17 09:10:41;;;;;;;4.93;1.05;;;;;;;-146.73;100.00;56421.06;6047245;23;20033;-94
2022/11/17 09:13:07;;;;;;;3.72;0.90;;;;;;;-146.73;100.00;56421.06;6065019;23;20110;-94
2022/11/17 09:15:44;;;;;;;5.05;1.30;;;;;;;-146.73;100.00;56421.06;6063603;23;20015;-93
2022/11/17 09:18:09;;;;;;;4.95;1.00;;;;;;;-146.73;100.00;56421.06;6063604;23;20023;-93
2022/11/17 09:20:36;;;;;;;5.30;1.13;;;;;;;-146.73;100.00;56421.06;6062316;23;20437;-94
2022/11/17 09:23:17;;;;;;;3.42;0.88;;;;;;;-146.73;100.00;56421.06;6064625;23;20034;-92
2022/11/17 09:25:47;;;;;;;4.47;0.90;;;;;;;-146.73;100.00;56421.06;6003175;23;20077;-94
2022/11/17 09:28:14;;;;;;;4.43;0.93;;;;;;;-146.73;100.00;56421.06;6004958;23;20027;-94
2022/11/17 09:31:04;;;;;;;2.78;0.60;;;;;;;-146.73;100.00;56421.06;6004931;23;20024;-94
2022/11/17 09:33:31;;;;;;;3.63;0.70;;;;;;;-146.73;100.00;56421.06;5980893;23;20015;-94
2022/11/17 09:35:57;;;;;;;1.52;0.40;;;;;;;-146.73;100.00;56421.06;5979077;23;20020;-92
2022/11/17 09:38:25;;;;;;;1.38;0.43;;;;;;;-146.73;100.00;56421.06;5980792;23;20122;-95
2022/11/17 09:40:53;;;;;;;1.38;0.40;;;;;;;-146.73;100.00;56421.06;5981151;23;20434;-94
2022/11/17 09:44:04;;;;;;;1.67;0.40;;;;;;;-146.73;100.00;56421.06;5984911;23;20020;-95
2022/11/17 09:47:10;;;;;;;1.38;0.40;;;;;;;-146.73;100.00;56421.06;6006222;23;20027;-96
2022/11/17 09:50:03;;;;;;;1.73;0.40;;;;;;;-146.73;100.00;56421.06;5995834;23;20019;-94
2022/11/17 09:52:43;;;;;;;3.45;0.50;;;;;;;-146.73;100.00;56421.06;5985610;23;20045;-94
2022/11/17 09:55:40;;;;;;;1.10;0.30;;;;;;;-146.73;100.00;56421.06;5985173;23;20438;-94
2022/11/17 09:58:28;;;;;;;1.00;0.30;;;;;;;-146.73;100.00;56421.06;6067997;23;20015;-93
2022/11/17 10:00:55;;;;;;;1.13;0.40;;;;;;;-146.73;100.00;56421.06;6066685;23;20013;-94
2022/11/17 10:03:28;;;;;;;2.28;0.40;;;;;;;-146.73;100.00;56421.06;6070596;23;20019;-94
2022/11/17 10:06:20;;;;;;;2.13;0.30;;;;;;;-146.73;100.00;56421.06;6065791;23;20025;-96
2022/11/17 10:22:55;;;;;;;2.20;0.50;;;;;;;-146.73;100.00;56421.06;6037663;23;20038;-96
2022/11/17 10:25:42;;;;;;;1.85;0.50;;;;;;;-146.73;100.00;56421.06;5992610;23;20039;-94
2022/11/17 10:28:24;;;;;;;2.35;0.52;;;;;;;-146.73;100.00;56421.06;6038083;23;20042;-94
2022/11/17 10:31:13;;;;;;;3.63;0.80;;;;;;;-146.73;100.00;56421.06;6012069;23;20026;-95
2022/11/17 10:33:53;;;;;;;1.55;0.40;;;;;;;-146.73;100.00;56421.06;6035359;23;20595;-94
2022/11/17 10:37:03;;;;;;;;;;;;;;;;;;;;;
2022/11/17 10:39:48;;;;;;;3.72;0.70;;;;;;;-146.73;100.00;56421.06;6005652;23;20077;-95
2022/11/17 10:42:19;;;;;;;1.88;0.32;;;;;;;-146.73;100.00;56421.06;6009506;23;20041;-94
2022/11/17 10:45:17;;;;;;;1.70;0.32;;;;;;;-146.73;100.00;56421.06;6012729;23;20019;-95
2022/11/17 10:47:45;;;;;;;3.20;0.85;;;;;;;-146.73;100.00;56421.06;6013120;23;20026;-93
2022/11/17 10:50:27;;;;;;;3.97;0.70;;;;;;;-146.73;100.00;56421.06;6036268;23;20066;-94
2022/11/17 10:53:30;;;;;;;2.65;0.47;;;;;;;-146.73;100.00;56421.06;6031158;23;20121;-94
2022/11/17 10:56:04;;;;;;;2.05;0.50;;;;;;;-146.73;100.00;56421.06;6062935;23;20393;-96
2022/11/17 10:58:49;;;;;;;2.85;0.43;;;;;;;-146.73;100.00;56421.06;6064531;23;20065;-93
2022/11/17 11:01:48;;;;;;;;;;;;;;;;;;;;;
2022/11/17 11:05:02;;;;;;;1.77;0.40;;;;;;;-146.73;100.00;56421.06;6053691;23;20090;-95
2022/11/17 11:12:04;;;;;;;1.48;0.40;;;;;;;-146.73;100.00;56421.06;6034244;23;20050;-94
2022/11/17 11:14:47;;;;;;;1.70;0.57;;;;;;;-146.73;100.00;56421.06;5995011;23;20019;-94
2022/11/17 11:27:21;;;;;;;3.53;0.80;;;;;;;-146.73;100.00;56421.06;6037802;23;20452;-94
2022/11/17 11:30:10;;;;;;;3.75;0.80;;;;;;;-146.73;100.00;56421.06;6013791;23;20023;-95
2022/11/17 11:32:51;;;;;;;4.18;0.60;;;;;;;-146.73;100.00;56421.06;6016543;23;20023;-94
2022/11/17 11:35:43;;;;;;;3.78;0.80;;;;;;;-146.73;100.00;56421.06;6017879;23;20015;-94
2022/11/17 11:38:37;;;;;;;4.30;1.00;;;;;;;-146.73;100.00;56421.06;6022585;23;20074;-94
2022/11/17 11:41:20;;;;;;;3.63;0.90;;;;;;;-146.73;100.00;56421.06;6026998;23;20011;-95
2022/11/17 11:44:13;;;;;;;4.18;0.88;;;;;;;-146.73;100.00;56421.06;6018344;23;20011;-94
2022/11/17 11:47:16;;;;;;;3.00;0.82;;;;;;;-146.73;100.00;56421.06;6022279;23;20019;-94
2022/11/17 11:50:22;;;;;;;7.30;1.00;;;;;;;-146.73;100.00;56421.06;6025783;23;20081;-96
2022/11/17 11:53:21;;;;;;;4.13;0.98;;;;;;;-146.73;100.00;56421.06;5945588;24;20044;-95
2022/11/17 11:56:34;;;;;;;4.10;0.90;;;;;;;-146.73;100.00;56421.06;5961678;24;20092;-95
2022/11/17 12:21:37;;;;;;;5.80;1.17;;;;;;;-146.73;100.00;56421.06;5929265;24;20007;-96
2022/11/17 12:24:17;;;;;;;3.15;0.50;;;;;;;-146.73;100.00;56421.06;5931431;24;20067;-96
2022/11/17 12:27:34;;;;;;;3.20;0.55;;;;;;;-146.73;100.00;56421.06;5963730;24;20095;-96
2022/11/17 12:30:03;;;;;;;3.20;0.77;;;;;;;-146.73;100.00;56421.06;5978137;23;20000;-94
2022/11/17 12:33:04;;;;;;;1.98;0.52;;;;;;;-146.73;100.00;56421.06;5978453;24;20027;-96
2022/11/17 12:38:32;;;;;;;2.70;0.50;;;;;;;-146.73;100.00;56421.06;6087463;23;20027;-93
2022/11/17 12:48:04;;;;;;;1.92;0.60;;;;;;;-146.73;100.00;56421.06;5974261;24;20008;-92
2022/11/17 12:51:10;;;;;;;2.40;0.63;;;;;;;-146.73;100.00;56421.06;5954952;24;20100;-93
2022/11/17 12:54:13;;;;;;;3.53;0.77;;;;;;;-146.73;100.00;56421.06;5955364;24;20020;-94
2022/11/17 13:00:04;;;;;;;1.80;0.60;;;;;;;-146.73;100.00;56421.06;6104381;23;20366;-94
2022/11/17 13:03:10;;;;;;;2.15;0.60;;;;;;;-146.73;100.00;56421.06;6084906;23;20022;-95
2022/11/17 13:05:41;;;;;;;2.20;0.63;;;;;;;-146.73;100.00;56421.06;6087586;23;20017;-95
2022/11/17 13:08:26;;;;;;;2.20;0.52;;;;;;;-146.73;100.00;56421.06;6120092;23;20021;-95
2022/11/17 13:46:34;;;;;;;2.17;0.57;;;;;;;-146.73;100.00;56421.06;6079541;23;20939;-92
2022/11/17 13:59:30;;;;;;;2.40;0.52;;;;;;;-146.73;100.00;56421.06;6088901;23;20067;-95
2022/11/17 14:02:33;;;;;;;1.98;0.50;;;;;;;-146.73;100.00;56421.06;6070131;23;20105;-92
2022/11/17 14:05:28;;;;;;;1.65;0.40;;;;;;;-146.73;100.00;56421.06;6068265;23;20007;-93
2022/11/17 14:08:34;;;;;;;2.33;0.32;;;;;;;-146.73;100.00;56421.06;6070266;23;20009;-94
2022/11/17 14:11:09;;;;;;;2.20;0.60;;;;;;;-146.73;100.00;56421.06;6041946;23;20121;-94